Time;durP1;ratioP1;P1;durP2;ratioP2;P2;SDS_P1;SDS_P2;PMS_P1;PMS_P2;Temp;Humidity;BMP_temperature;BMP_pressure;BME280_temperature;BME280_humidity;BME280_pressure;Samples;Min_cycle;Max_cycle;Signal;HPM_P1;HPM_P2
2021/11/05 00:02:29;;;;;;;31.90;15.63;;;;;;;11.72;100.00;99401.83;1716652;81;21071;-69
2021/11/05 00:04:56;;;;;;;33.28;15.58;;;;;;;11.74;100.00;99410.55;1722587;81;20994;-68
2021/11/05 00:07:23;;;;;;;32.20;16.35;;;;;;;11.75;100.00;99416.30;1727063;81;21588;-68
2021/11/05 00:09:49;;;;;;;25.17;13.35;;;;;;;11.76;100.00;99425.59;1719557;81;21083;-68
2021/11/05 00:12:16;;;;;;;23.10;12.80;;;;;;;11.79;100.00;99431.04;1747472;81;20910;-68
2021/11/05 00:14:44;;;;;;;23.35;12.70;;;;;;;11.81;100.00;99426.02;1729555;81;20954;-68
2021/11/05 00:17:11;;;;;;;25.72;14.28;;;;;;;11.83;100.00;99414.13;1747185;81;20931;-68
2021/11/05 00:19:38;;;;;;;26.23;14.03;;;;;;;11.84;100.00;99421.25;1749394;81;20978;-68
2021/11/05 00:22:06;;;;;;;24.05;13.38;;;;;;;11.87;100.00;99425.53;1751808;81;22121;-68
2021/11/05 00:24:33;;;;;;;22.90;12.93;;;;;;;11.89;100.00;99421.88;1747932;81;20948;-69
2021/11/05 00:26:59;;;;;;;25.88;14.07;;;;;;;11.92;100.00;99430.05;1745612;81;20919;-69
2021/11/05 00:29:26;;;;;;;19.95;12.05;;;;;;;11.94;100.00;99429.72;1745247;81;20879;-68
2021/11/05 00:31:53;;;;;;;20.77;12.90;;;;;;;11.97;100.00;99425.75;1741039;81;21574;-69
2021/11/05 00:34:19;;;;;;;22.65;13.03;;;;;;;12.01;100.00;99425.91;1733708;81;21488;-70
2021/11/05 00:36:47;;;;;;;28.45;13.70;;;;;;;12.03;100.00;99415.38;1725049;82;20979;-69
2021/11/05 00:39:14;;;;;;;24.40;13.93;;;;;;;12.06;100.00;99423.78;1737002;81;21468;-69
2021/11/05 00:41:41;;;;;;;27.05;15.32;;;;;;;12.09;100.00;99412.69;1734282;80;21035;-69
2021/11/05 00:44:07;;;;;;;28.12;14.50;;;;;;;12.11;100.00;99416.73;1730969;81;20947;-69
2021/11/05 00:46:34;;;;;;;27.17;14.68;;;;;;;12.14;100.00;99402.28;1724117;81;21146;-69
2021/11/05 00:49:01;;;;;;;28.25;15.35;;;;;;;12.16;100.00;99401.38;1692619;82;21713;-69
2021/11/05 00:51:29;;;;;;;34.10;14.53;;;;;;;12.17;100.00;99403.00;1700168;83;20988;-68
2021/11/05 00:53:58;;;;;;;24.75;14.98;;;;;;;12.19;100.00;99398.54;1699910;83;21384;-67
2021/11/05 00:56:24;;;;;;;24.50;14.78;;;;;;;12.21;100.00;99399.83;1699479;82;21488;-67
2021/11/05 00:58:52;;;;;;;23.20;13.72;;;;;;;12.24;100.00;99398.36;1685358;84;21209;-69
2021/11/05 01:01:18;;;;;;;29.15;14.80;;;;;;;12.26;100.00;99401.59;1704432;82;21003;-69
2021/11/05 01:03:45;;;;;;;25.10;15.85;;;;;;;12.29;100.00;99396.80;1734529;82;20895;-70
2021/11/05 01:06:14;;;;;;;26.42;15.53;;;;;;;12.30;100.00;99397.04;1732082;81;21042;-70
2021/11/05 01:08:42;;;;;;;28.17;15.05;;;;;;;12.34;100.00;99411.75;1729956;82;21005;-69
2021/11/05 01:11:09;;;;;;;33.65;15.68;;;;;;;12.39;100.00;99414.89;1724322;81;21946;-69
2021/11/05 01:13:35;;;;;;;30.52;17.12;;;;;;;12.39;100.00;99400.56;1724807;82;21035;-69
2021/11/05 01:16:02;;;;;;;29.90;15.93;;;;;;;12.42;100.00;99394.39;1731831;81;21007;-68
2021/11/05 01:18:29;;;;;;;31.62;17.23;;;;;;;12.43;100.00;99386.38;1735712;81;20922;-68
2021/11/05 01:20:55;;;;;;;25.75;15.75;;;;;;;12.44;100.00;99392.69;1725036;82;20999;-69
2021/11/05 01:23:21;;;;;;;30.43;16.62;;;;;;;12.45;100.00;99388.80;1726968;82;21492;-69
2021/11/05 01:25:49;;;;;;;26.62;14.98;;;;;;;12.45;100.00;99396.48;1702637;83;20866;-68
2021/11/05 01:28:16;;;;;;;25.52;14.65;;;;;;;12.48;100.00;99388.12;1697869;83;21095;-69
2021/11/05 01:30:42;;;;;;;29.20;15.40;;;;;;;12.51;100.00;99392.97;1685048;82;21609;-69
2021/11/05 01:33:11;;;;;;;28.10;15.90;;;;;;;12.53;100.00;99389.31;1691283;83;21209;-68
2021/11/05 01:35:40;;;;;;;27.27;15.63;;;;;;;12.53;100.00;99386.00;1696553;83;21920;-69
2021/11/05 01:38:08;;;;;;;33.85;18.10;;;;;;;12.53;100.00;99381.86;1689006;83;21066;-68
2021/11/05 01:40:37;;;;;;;29.50;16.87;;;;;;;12.56;100.00;99386.70;1693997;83;20953;-68
2021/11/05 01:43:04;;;;;;;32.75;16.97;;;;;;;12.55;100.00;99378.21;1710469;80;21648;-70
2021/11/05 01:45:32;;;;;;;34.43;16.77;;;;;;;12.58;100.00;99380.06;1700336;83;20934;-69
2021/11/05 01:48:00;;;;;;;30.80;16.85;;;;;;;12.58;100.00;99367.10;1712413;83;21973;-69
2021/11/05 01:50:27;;;;;;;33.98;18.42;;;;;;;12.59;100.00;99362.40;1702897;82;20931;-68
2021/11/05 01:52:55;;;;;;;35.58;18.05;;;;;;;12.59;100.00;99366.53;1689842;83;20958;-69
2021/11/05 01:55:22;;;;;;;32.73;18.42;;;;;;;12.60;100.00;99369.52;1717293;82;21013;-68
2021/11/05 01:57:49;;;;;;;38.75;18.42;;;;;;;12.61;100.00;99382.15;1711531;82;21070;-68
2021/11/05 02:00:18;;;;;;;30.10;16.02;;;;;;;12.64;100.00;99388.38;1720668;83;21536;-68
2021/11/05 02:02:45;;;;;;;28.73;16.90;;;;;;;12.65;100.00;99389.41;1716893;83;20972;-68
2021/11/05 02:05:12;;;;;;;38.13;20.43;;;;;;;12.68;100.00;99393.45;1717277;83;20928;-67
2021/11/05 02:07:52;;;;;;;50.10;21.45;;;;;;;12.70;100.00;99414.58;1716910;83;20944;-67
2021/11/05 02:10:21;;;;;;;39.23;19.75;;;;;;;12.73;100.00;99424.91;1690153;83;20980;-68
2021/11/05 02:12:49;;;;;;;40.00;20.15;;;;;;;12.78;100.00;99432.97;1693325;83;21149;-67
2021/11/05 02:15:16;;;;;;;39.38;20.80;;;;;;;12.80;100.00;99425.19;1737213;81;20927;-68
2021/11/05 02:17:44;;;;;;;42.13;21.75;;;;;;;12.82;100.00;99422.33;1697982;83;20959;-68
2021/11/05 02:20:12;;;;;;;37.42;21.68;;;;;;;12.85;100.00;99431.31;1683604;83;20992;-68
2021/11/05 02:22:39;;;;;;;41.13;23.22;;;;;;;12.87;100.00;99427.65;1724382;81;21082;-69
2021/11/05 02:25:07;;;;;;;40.15;21.17;;;;;;;12.89;100.00;99423.19;1715851;82;21098;-69
2021/11/05 02:27:34;;;;;;;38.67;20.48;;;;;;;12.89;100.00;99428.13;1706557;83;21039;-68
2021/11/05 02:30:01;;;;;;;37.33;20.68;;;;;;;12.92;100.00;99427.22;1694387;82;21103;-68
2021/11/05 02:32:28;;;;;;;43.25;23.25;;;;;;;12.93;100.00;99422.76;1742737;82;20943;-68
2021/11/05 02:34:54;;;;;;;38.53;22.87;;;;;;;12.94;100.00;99410.59;1725107;81;20937;-68
2021/11/05 02:37:25;;;;;;;42.70;23.73;;;;;;;12.94;100.00;99419.43;1710709;82;21965;-68
2021/11/05 02:39:53;;;;;;;41.35;22.82;;;;;;;12.96;100.00;99426.80;1720999;81;20907;-68
2021/11/05 02:42:20;;;;;;;44.23;22.82;;;;;;;12.96;100.00;99424.03;1682706;83;21486;-69
2021/11/05 02:44:47;;;;;;;46.42;22.52;;;;;;;12.97;100.00;99418.77;1683040;83;21015;-69
2021/11/05 02:47:26;;;;;;;38.75;23.57;;;;;;;12.98;100.00;99413.48;1701800;81;20983;-69
2021/11/05 02:49:57;;;;;;;43.68;24.67;;;;;;;13.00;100.00;99422.23;1694971;83;21784;-69
2021/11/05 02:52:23;;;;;;;39.85;24.10;;;;;;;12.97;100.00;99408.55;1697801;83;21010;-68
2021/11/05 02:54:50;;;;;;;51.35;25.12;;;;;;;12.99;100.00;99412.34;1720387;83;20898;-69
2021/11/05 02:57:16;;;;;;;42.40;23.52;;;;;;;13.01;100.00;99415.00;1746546;81;21435;-68
2021/11/05 02:59:43;;;;;;;40.05;21.55;;;;;;;13.02;100.00;99422.70;1747135;81;21059;-68
2021/11/05 03:02:11;;;;;;;47.08;25.30;;;;;;;13.03;100.00;99413.29;1723436;81;21941;-69
2021/11/05 03:04:37;;;;;;;49.98;26.07;;;;;;;13.03;100.00;99411.91;1726369;81;20996;-68
2021/11/05 03:07:08;;;;;;;36.83;21.27;;;;;;;13.02;100.00;99413.05;1722824;81;20983;-70
2021/11/05 03:09:39;;;;;;;47.58;25.48;;;;;;;13.02;100.00;99406.17;1711360;83;20964;-69
2021/11/05 03:12:08;;;;;;;46.05;24.50;;;;;;;13.02;100.00;99409.73;1706926;83;21047;-69
2021/11/05 03:14:34;;;;;;;38.28;22.22;;;;;;;13.03;100.00;99411.91;1725855;81;21125;-69
2021/11/05 03:17:02;;;;;;;40.83;22.75;;;;;;;13.03;100.00;99404.45;1726254;81;20897;-69
2021/11/05 03:19:29;;;;;;;48.25;22.75;;;;;;;13.06;100.00;99415.38;1704332;82;21458;-69
2021/11/05 03:21:55;;;;;;;41.08;23.27;;;;;;;13.07;100.00;99424.69;1694773;83;20956;-69
2021/11/05 03:24:22;;;;;;;43.35;20.65;;;;;;;13.11;100.00;99430.34;1699340;83;21047;-68
2021/11/05 03:26:49;;;;;;;37.23;21.68;;;;;;;13.11;100.00;99435.28;1696978;83;22171;-68
2021/11/05 03:29:16;;;;;;;37.95;19.40;;;;;;;13.10;100.00;99435.61;1701741;83;21499;-68
2021/11/05 03:31:42;;;;;;;34.98;19.48;;;;;;;13.09;100.00;99432.05;1700379;82;20942;-68
2021/11/05 03:34:10;;;;;;;33.40;18.52;;;;;;;13.09;100.00;99441.70;1704273;84;21008;-69
2021/11/05 03:36:37;;;;;;;39.58;20.35;;;;;;;13.10;100.00;99430.91;1702614;84;21023;-68
2021/11/05 03:39:05;;;;;;;41.63;19.82;;;;;;;13.11;100.00;99438.61;1687197;83;21510;-67
2021/11/05 03:41:32;;;;;;;39.50;20.00;;;;;;;13.11;100.00;99430.34;1704773;84;20908;-68
2021/11/05 03:43:59;;;;;;;36.60;18.92;;;;;;;13.11;100.00;99435.85;1699803;84;21479;-68
2021/11/05 03:46:27;;;;;;;32.35;19.82;;;;;;;13.12;100.00;99428.63;1674649;82;20956;-70
2021/11/05 03:48:54;;;;;;;35.23;20.52;;;;;;;13.12;100.00;99426.44;1693554;83;21018;-70
2021/11/05 03:51:21;;;;;;;35.60;20.52;;;;;;;13.11;100.00;99428.96;1699086;83;21135;-70
2021/11/05 03:53:48;;;;;;;36.70;21.10;;;;;;;13.09;100.00;99422.41;1697584;83;20999;-69
2021/11/05 03:56:15;;;;;;;47.17;24.23;;;;;;;13.10;100.00;99421.27;1714741;83;20947;-70
2021/11/05 03:58:41;;;;;;;39.90;24.72;;;;;;;13.10;100.00;99422.64;1716804;83;21487;-70
2021/11/05 04:01:08;;;;;;;34.13;20.77;;;;;;;13.12;100.00;99412.66;1714455;83;20900;-69
2021/11/05 04:03:36;;;;;;;44.03;21.57;;;;;;;13.11;100.00;99413.23;1708634;82;21023;-69
2021/11/05 04:06:03;;;;;;;37.90;21.35;;;;;;;13.10;100.00;99417.13;1732246;80;21007;-69
2021/11/05 04:08:31;;;;;;;43.92;25.45;;;;;;;13.11;100.00;99411.85;1710079;83;20904;-70
2021/11/05 04:10:59;;;;;;;48.65;23.30;;;;;;;13.11;100.00;99414.61;1708100;83;21475;-70
2021/11/05 04:13:27;;;;;;;39.18;20.80;;;;;;;13.11;100.00;99405.53;1711767;83;21024;-70
2021/11/05 04:15:54;;;;;;;37.00;19.92;;;;;;;13.10;100.00;99401.16;1712152;83;21150;-71
2021/11/05 04:18:20;;;;;;;42.70;21.37;;;;;;;13.12;100.00;99403.02;1714632;83;20987;-68
2021/11/05 04:20:49;;;;;;;39.65;22.45;;;;;;;13.12;100.00;99401.63;1716985;83;20955;-68
2021/11/05 04:23:17;;;;;;;40.03;20.52;;;;;;;13.11;100.00;99394.52;1717299;83;21554;-68
2021/11/05 04:25:45;;;;;;;42.58;21.37;;;;;;;13.09;100.00;99404.48;1716917;83;20939;-69
2021/11/05 04:28:12;;;;;;;42.55;20.25;;;;;;;13.09;100.00;99407.82;1717224;83;21108;-71
2021/11/05 04:30:39;;;;;;;38.98;20.12;;;;;;;13.09;100.00;99411.38;1713261;83;20988;-70
2021/11/05 04:33:05;;;;;;;50.90;25.12;;;;;;;13.07;100.00;99417.80;1713913;83;20861;-70
2021/11/05 04:35:32;;;;;;;52.33;25.02;;;;;;;13.07;100.00;99419.17;1712005;83;20948;-70
2021/11/05 04:37:59;;;;;;;49.83;24.10;;;;;;;13.06;100.00;99423.64;1714203;83;20932;-70
2021/11/05 04:40:26;;;;;;;44.08;24.77;;;;;;;13.07;100.00;99434.91;1713599;83;21554;-71
2021/11/05 04:42:53;;;;;;;45.90;25.12;;;;;;;13.08;100.00;99426.30;1712024;83;21016;-71
2021/11/05 04:45:20;;;;;;;50.75;24.05;;;;;;;13.08;100.00;99424.12;1709274;83;21070;-71
2021/11/05 04:47:46;;;;;;;42.93;22.87;;;;;;;13.08;100.00;99421.36;1712370;83;20905;-67
2021/11/05 04:50:13;;;;;;;43.42;22.65;;;;;;;13.08;100.00;99415.28;1712882;83;20951;-67
2021/11/05 04:52:47;;;;;;;43.02;24.00;;;;;;;13.09;100.00;99413.33;1709964;83;21159;-66
2021/11/05 04:55:09;;;;;;;43.95;21.77;;;;;;;13.09;100.00;99414.70;1708118;84;20897;-67
2021/11/05 04:57:38;;;;;;;42.45;21.82;;;;;;;13.10;100.00;99415.75;1694057;82;20963;-67
2021/11/05 05:00:07;;;;;;;39.63;21.52;;;;;;;13.11;100.00;99413.23;1723329;82;20951;-67
2021/11/05 05:02:34;;;;;;;35.05;21.97;;;;;;;13.11;100.00;99413.80;1713811;83;21026;-68
2021/11/05 05:05:02;;;;;;;48.48;25.43;;;;;;;13.11;100.00;99418.74;1709010;84;21840;-67
2021/11/05 05:07:28;;;;;;;48.50;25.35;;;;;;;13.10;100.00;99430.10;1708738;83;20897;-68
2021/11/05 05:09:56;;;;;;;42.40;23.42;;;;;;;13.07;100.00;99424.69;1708945;84;21470;-68
2021/11/05 05:12:22;;;;;;;43.68;25.75;;;;;;;13.09;100.00;99429.30;1708968;84;20944;-67
2021/11/05 05:14:49;;;;;;;40.73;24.37;;;;;;;13.09;100.00;99429.86;1715848;83;20924;-68
2021/11/05 05:17:16;;;;;;;46.02;28.00;;;;;;;13.10;100.00;99433.66;1701040;82;21111;-68
2021/11/05 05:19:42;;;;;;;47.90;24.98;;;;;;;13.10;100.00;99429.53;1712666;83;20956;-68
2021/11/05 05:22:09;;;;;;;35.90;21.20;;;;;;;13.10;100.00;99433.66;1714872;82;21068;-68
2021/11/05 05:24:36;;;;;;;43.98;23.20;;;;;;;13.12;100.00;99427.25;1728025;81;20908;-69
2021/11/05 05:27:04;;;;;;;40.38;22.48;;;;;;;13.12;100.00;99437.47;1723996;81;20962;-68
2021/11/05 05:29:31;;;;;;;45.17;23.22;;;;;;;13.12;100.00;99443.78;1706281;83;21787;-69
2021/11/05 05:31:57;;;;;;;47.13;24.55;;;;;;;13.13;100.00;99453.67;1703812;83;21570;-68
2021/11/05 05:34:24;;;;;;;44.08;24.43;;;;;;;13.13;100.00;99453.67;1721889;81;20981;-68
2021/11/05 05:36:50;;;;;;;42.83;26.05;;;;;;;13.13;100.00;99467.45;1700708;83;20996;-69
2021/11/05 05:39:17;;;;;;;45.75;25.30;;;;;;;13.15;100.00;99463.78;1742288;82;21062;-67
2021/11/05 05:41:44;;;;;;;47.45;24.67;;;;;;;13.15;100.00;99462.41;1695512;83;21098;-68
2021/11/05 05:44:11;;;;;;;45.63;25.50;;;;;;;13.16;100.00;99461.30;1698619;82;21420;-68
2021/11/05 05:46:37;;;;;;;42.88;24.87;;;;;;;13.18;100.00;99466.47;1731956;81;21067;-68
2021/11/05 05:49:04;;;;;;;49.25;28.32;;;;;;;13.18;100.00;99464.52;1743563;81;20919;-68
2021/11/05 05:51:33;;;;;;;47.17;25.35;;;;;;;13.19;100.00;99465.33;1745287;81;20939;-68
2021/11/05 05:54:00;;;;;;;46.10;23.77;;;;;;;13.19;100.00;99466.14;1747906;81;21149;-68
2021/11/05 05:56:27;;;;;;;44.73;22.30;;;;;;;13.20;100.00;99466.38;1748178;80;20915;-67
2021/11/05 05:58:53;;;;;;;45.65;24.02;;;;;;;13.21;100.00;99459.72;1749944;81;20899;-67
2021/11/05 06:01:20;;;;;;;43.70;22.70;;;;;;;13.20;100.00;99460.86;1747217;81;20879;-67
2021/11/05 06:03:47;;;;;;;40.65;22.77;;;;;;;13.23;100.00;99482.01;1748888;81;21505;-67
2021/11/05 06:06:13;;;;;;;47.17;26.70;;;;;;;13.24;100.00;99473.98;1713466;83;21177;-67
2021/11/05 06:08:40;;;;;;;46.30;24.50;;;;;;;13.27;100.00;99473.31;1750955;80;21359;-67
2021/11/05 06:11:09;;;;;;;46.85;25.23;;;;;;;13.30;100.00;99475.36;1745507;81;21018;-67
2021/11/05 06:13:37;;;;;;;49.08;26.57;;;;;;;13.31;100.00;99494.90;1698457;83;20895;-68
2021/11/05 06:16:07;;;;;;;56.75;28.95;;;;;;;13.31;100.00;99477.78;1702791;83;21609;-69
2021/11/05 06:18:33;;;;;;;56.23;29.20;;;;;;;13.32;100.00;99467.56;1722190;81;21140;-69
2021/11/05 06:21:01;;;;;;;44.77;24.18;;;;;;;13.32;100.00;99463.43;1708224;83;20924;-67
2021/11/05 06:23:27;;;;;;;43.08;22.48;;;;;;;13.32;100.00;99470.32;1709805;83;20932;-67
2021/11/05 06:25:56;;;;;;;41.90;23.05;;;;;;;13.33;100.00;99466.42;1708850;84;21534;-67
2021/11/05 06:28:23;;;;;;;48.02;25.50;;;;;;;13.35;100.00;99457.24;1708809;84;20983;-67
2021/11/05 06:30:50;;;;;;;49.33;25.37;;;;;;;13.36;100.00;99459.66;1709004;84;21164;-68
2021/11/05 06:33:18;;;;;;;49.73;25.23;;;;;;;13.40;100.00;99461.98;1708596;84;20940;-67
2021/11/05 06:35:46;;;;;;;47.85;25.97;;;;;;;13.43;100.00;99465.45;1708953;84;20991;-67
2021/11/05 06:38:13;;;;;;;56.18;27.35;;;;;;;13.44;100.00;99464.88;1708753;84;21391;-69
2021/11/05 06:40:41;;;;;;;49.25;27.25;;;;;;;13.44;100.00;99464.30;1708776;84;20889;-67
2021/11/05 06:43:09;;;;;;;46.65;25.70;;;;;;;13.46;100.00;99479.14;1713089;83;21072;-67
2021/11/05 06:45:37;;;;;;;51.37;30.10;;;;;;;13.47;100.00;99467.77;1715923;83;20940;-67
2021/11/05 06:48:04;;;;;;;48.90;27.77;;;;;;;13.48;100.00;99468.01;1715449;83;21546;-70
2021/11/05 06:50:33;;;;;;;46.28;26.62;;;;;;;13.47;100.00;99456.74;1733201;80;21503;-71
2021/11/05 06:53:00;;;;;;;47.55;26.25;;;;;;;13.50;100.00;99471.81;1747456;80;21106;-69
2021/11/05 06:55:29;;;;;;;55.83;28.62;;;;;;;13.50;100.00;99475.95;1720290;81;21102;-70
2021/11/05 06:57:56;;;;;;;50.17;27.87;;;;;;;13.52;100.00;99479.98;1745298;81;21418;-67
2021/11/05 07:00:22;;;;;;;45.50;26.17;;;;;;;13.54;100.00;99472.17;1741016;81;21138;-72
2021/11/05 07:02:49;;;;;;;47.60;25.37;;;;;;;13.59;100.00;99478.63;1696524;82;21122;-71
2021/11/05 07:05:16;;;;;;;44.05;25.37;;;;;;;13.64;100.00;99482.00;1708739;83;20947;-72
2021/11/05 07:07:43;;;;;;;52.85;29.23;;;;;;;13.68;100.00;99480.75;1733958;81;22099;-74
2021/11/05 07:10:11;;;;;;;49.80;30.37;;;;;;;13.72;100.00;99487.20;1744469;81;20967;-72
2021/11/05 07:12:39;;;;;;;51.08;28.67;;;;;;;13.74;100.00;99489.86;1744512;82;20955;-71
2021/11/05 07:15:07;;;;;;;55.25;29.35;;;;;;;13.75;100.00;99483.20;1746293;81;21065;-74
2021/11/05 07:17:35;;;;;;;48.95;28.62;;;;;;;13.77;100.00;99479.53;1743992;81;21015;-72
2021/11/05 07:20:04;;;;;;;53.42;29.80;;;;;;;13.79;100.00;99477.23;1741943;80;21102;-73
2021/11/05 07:22:31;;;;;;;43.28;26.45;;;;;;;13.82;100.00;99483.46;1717290;80;21021;-73
2021/11/05 07:24:58;;;;;;;52.15;26.62;;;;;;;13.86;100.00;99495.41;1736705;81;20927;-73
2021/11/05 07:27:25;;;;;;;42.98;25.30;;;;;;;13.86;100.00;99500.92;1688663;83;21082;-68
2021/11/05 07:29:51;;;;;;;49.42;27.45;;;;;;;13.85;100.00;99514.52;1715206;81;21008;-69
2021/11/05 07:32:18;;;;;;;40.05;25.10;;;;;;;13.87;100.00;99504.48;1749975;81;22198;-69
2021/11/05 07:34:45;;;;;;;49.27;25.95;;;;;;;13.89;100.00;99510.48;1706510;83;21034;-70
2021/11/05 07:37:18;;;;;;;55.43;26.37;;;;;;;13.90;100.00;99503.81;1726643;82;21571;-71
2021/11/05 07:39:42;;;;;;;52.93;28.02;;;;;;;13.90;100.00;99516.23;1719724;82;20906;-69
2021/11/05 07:42:09;;;;;;;47.73;25.62;;;;;;;13.89;100.00;99525.08;1695349;83;20939;-75
2021/11/05 07:44:37;;;;;;;51.30;27.07;;;;;;;13.86;100.00;99544.30;1733061;80;21082;-75
2021/11/05 07:47:04;;;;;;;48.17;26.77;;;;;;;13.84;100.00;99547.39;1727459;80;20998;-76
2021/11/05 07:49:31;;;;;;;44.27;24.37;;;;;;;13.84;100.00;99543.25;1696093;82;21037;-77
2021/11/05 07:51:58;;;;;;;42.10;23.73;;;;;;;13.88;100.00;99536.45;1728289;80;21102;-71
2021/11/05 07:54:24;;;;;;;47.38;24.43;;;;;;;13.93;100.00;99533.49;1739734;80;21038;-73
2021/11/05 07:56:52;;;;;;;46.77;23.60;;;;;;;13.96;100.00;99527.87;1715679;81;20890;-72
2021/11/05 07:59:19;;;;;;;42.78;23.52;;;;;;;14.01;100.00;99509.72;1716752;83;20999;-68
2021/11/05 08:01:46;;;;;;;45.55;23.75;;;;;;;14.06;100.00;99504.80;1714627;83;21173;-68
2021/11/05 08:04:13;;;;;;;40.28;23.90;;;;;;;14.10;100.00;99514.59;1712594;82;21039;-68
2021/11/05 08:06:39;;;;;;;39.78;23.15;;;;;;;14.11;100.00;99518.96;1746062;81;21031;-69
2021/11/05 08:09:06;;;;;;;41.92;23.65;;;;;;;14.12;100.00;99510.34;1751891;81;21050;-74
2021/11/05 08:11:35;;;;;;;56.77;29.30;;;;;;;14.12;100.00;99504.02;1745206;80;20998;-72
2021/11/05 08:14:02;;;;;;;69.42;35.23;;;;;;;14.14;100.00;99503.91;1730011;81;20991;-78
2021/11/05 08:16:29;;;;;;;65.50;32.28;;;;;;;14.32;100.00;99493.48;1732400;82;21499;-77
2021/11/05 08:18:55;;;;;;;57.67;30.25;;;;;;;14.63;100.00;99499.08;1737263;82;21011;-77
2021/11/05 08:21:22;;;;;;;45.00;27.07;;;;;;;14.94;100.00;99493.80;1733751;81;22135;-70
2021/11/05 08:23:48;;;;;;;44.05;25.97;;;;;;;15.12;99.68;99502.05;1723428;81;21008;-70
2021/11/05 08:26:15;;;;;;;45.52;25.27;;;;;;;15.12;99.34;99503.44;1701220;83;21090;-68
2021/11/05 08:28:41;;;;;;;77.17;36.55;;;;;;;15.09;98.44;99494.45;1671072;83;21062;-68
2021/11/05 08:31:11;;;;;;;44.03;26.57;;;;;;;15.05;98.08;99496.30;1721699;83;21003;-68
2021/11/05 08:33:41;;;;;;;61.70;29.72;;;;;;;15.07;97.75;99498.14;1713071;83;21149;-69
2021/11/05 08:36:09;;;;;;;68.83;33.23;;;;;;;15.14;96.60;99483.16;1703409;82;21048;-72
2021/11/05 08:38:36;;;;;;;51.50;27.60;;;;;;;15.19;96.21;99495.94;1710813;83;21087;-70
2021/11/05 08:41:03;;;;;;;49.95;25.10;;;;;;;15.22;95.64;99500.78;1712515;83;21055;-81
2021/11/05 08:43:31;;;;;;;41.13;22.95;;;;;;;15.35;95.67;99507.10;1711509;83;20965;-77
2021/11/05 08:46:03;;;;;;;45.55;25.37;;;;;;;15.47;94.57;99513.42;1709904;83;21133;-76
2021/11/05 08:48:30;;;;;;;42.03;22.77;;;;;;;15.61;94.00;99515.81;1711648;83;21071;-78
2021/11/05 08:50:59;;;;;;;43.50;24.45;;;;;;;15.75;93.30;99520.97;1729962;81;20996;-77
2021/11/05 08:53:26;;;;;;;43.87;26.35;;;;;;;15.89;91.49;99525.53;1724839;81;21090;-78
2021/11/05 08:55:52;;;;;;;46.70;24.92;;;;;;;16.00;91.21;99520.30;1740206;81;21046;-83
2021/11/05 08:58:19;;;;;;;42.55;24.00;;;;;;;16.09;90.34;99519.00;1730096;81;21856;-75
2021/11/05 09:00:46;;;;;;;41.80;25.43;;;;;;;16.35;90.19;99519.88;1732364;82;20995;-80
2021/11/05 09:03:12;;;;;;;46.02;27.82;;;;;;;16.74;87.08;99518.17;1739109;82;21002;-78
2021/11/05 09:05:39;;;;;;;44.15;25.45;;;;;;;16.85;85.94;99514.25;1735788;82;21159;-76
2021/11/05 09:08:10;;;;;;;42.00;27.02;;;;;;;16.88;85.74;99527.98;1739452;81;21125;-75
2021/11/05 09:10:38;;;;;;;46.68;27.82;;;;;;;16.86;84.71;99529.73;1743373;80;20995;-74
2021/11/05 09:13:05;;;;;;;43.95;24.82;;;;;;;16.79;84.72;99524.00;1737675;81;21575;-79
2021/11/05 09:15:33;;;;;;;41.02;22.85;;;;;;;16.66;84.68;99518.34;1716175;82;20970;-82
2021/11/05 09:18:02;;;;;;;40.85;24.15;;;;;;;16.53;85.07;99525.09;1741306;81;21010;-82
2021/11/05 09:20:30;;;;;;;46.00;25.50;;;;;;;16.43;85.69;99518.11;1740560;81;21007;-80
2021/11/05 09:22:57;;;;;;;44.03;26.00;;;;;;;16.33;85.94;99515.27;1713852;82;21145;-84
2021/11/05 09:25:23;;;;;;;46.35;25.25;;;;;;;16.25;86.44;99512.08;1706208;81;21027;-77
2021/11/05 09:27:52;;;;;;;44.45;25.10;;;;;;;16.22;86.83;99501.72;1712068;81;20997;-69
2021/11/05 09:30:21;;;;;;;48.25;25.82;;;;;;;16.30;87.54;99489.67;1716984;82;20955;-70
2021/11/05 09:32:48;;;;;;;59.65;30.23;;;;;;;16.53;86.87;99494.61;1726314;80;21057;-68
2021/11/05 09:35:14;;;;;;;52.93;26.95;;;;;;;16.70;85.73;99497.07;1724433;81;21502;-71
2021/11/05 09:37:42;;;;;;;55.67;29.02;;;;;;;16.86;84.17;99492.88;1718326;81;20862;-71
2021/11/05 09:40:12;;;;;;;46.28;24.67;;;;;;;16.88;83.85;99496.09;1716598;81;21542;-71
2021/11/05 09:42:41;;;;;;;43.38;24.23;;;;;;;16.83;83.37;99502.72;1714855;82;22170;-71
2021/11/05 09:45:09;;;;;;;40.30;23.75;;;;;;;16.71;83.44;99512.53;1716986;81;21042;-70
2021/11/05 09:47:36;;;;;;;43.70;24.70;;;;;;;16.62;84.06;99510.48;1723071;81;21889;-69
2021/11/05 09:50:05;;;;;;;46.88;27.90;;;;;;;16.65;84.01;99507.03;1705920;82;21627;-69
2021/11/05 09:52:31;;;;;;;44.75;26.10;;;;;;;16.77;83.51;99501.38;1696626;82;21048;-70
2021/11/05 09:54:59;;;;;;;44.00;25.45;;;;;;;16.98;83.26;99496.36;1720745;81;21076;-79
2021/11/05 09:57:25;;;;;;;37.33;22.90;;;;;;;17.38;81.36;99498.05;1727633;82;21557;-75
2021/11/05 09:59:52;;;;;;;41.23;24.72;;;;;;;17.56;80.04;99498.45;1723273;82;21087;-77
2021/11/05 10:02:20;;;;;;;45.08;23.47;;;;;;;17.51;79.78;99496.76;1715938;80;21610;-76
2021/11/05 10:04:47;;;;;;;38.08;21.70;;;;;;;17.41;79.55;99486.23;1704028;82;21499;-85
2021/11/05 10:07:14;;;;;;;39.60;22.40;;;;;;;17.32;79.75;99473.17;1689658;82;21537;-73
2021/11/05 10:09:53;;;;;;;38.10;22.42;;;;;;;17.24;79.81;99482.50;1704203;82;21538;-70
2021/11/05 10:12:27;;;;;;;38.42;21.80;;;;;;;17.22;80.32;99469.57;1720868;82;39129;-69
2021/11/05 10:15:05;;;;;;;40.88;22.70;;;;;;;17.38;80.54;99454.45;1731560;82;21534;-72
2021/11/05 10:17:33;;;;;;;43.15;25.52;;;;;;;17.52;80.54;99454.55;1709386;82;20993;-72
2021/11/05 10:20:07;;;;;;;39.10;22.52;;;;;;;17.66;78.76;99429.89;1743607;81;21019;-71
2021/11/05 10:22:48;;;;;;;41.23;23.07;;;;;;;17.80;78.56;99451.81;1753695;81;20990;-72
2021/11/05 10:25:31;;;;;;;70.03;36.98;;;;;;;18.27;77.32;99454.87;1710638;81;21224;-79
2021/11/05 10:28:17;;;;;;;47.88;28.25;;;;;;;18.82;74.80;99440.12;1750651;81;20948;-71
2021/11/05 10:31:02;;;;;;;37.83;23.18;;;;;;;19.31;71.88;99442.02;1728006;80;20989;-79
2021/11/05 10:33:35;;;;;;;39.55;21.85;;;;;;;19.75;70.16;99444.39;1735128;82;21544;-76
2021/11/05 10:36:04;;;;;;;35.90;21.65;;;;;;;20.18;66.98;99453.24;1704847;82;21033;-83
2021/11/05 10:38:33;;;;;;;34.60;23.12;;;;;;;20.38;66.64;99458.83;1717697;82;21144;-81
2021/11/05 10:41:02;;;;;;;50.65;25.52;;;;;;;20.56;65.71;99453.42;1711387;80;21548;-74
2021/11/05 10:43:38;;;;;;;32.75;21.52;;;;;;;20.70;64.60;99452.16;1718626;80;21059;-70
2021/11/05 10:46:05;;;;;;;114.37;55.15;;;;;;;20.83;63.88;99465.18;1726758;81;21942;-74
2021/11/05 10:48:39;;;;;;;120.75;55.08;;;;;;;20.90;62.83;99458.27;1718509;80;21503;-71
2021/11/05 10:51:07;;;;;;;180.45;83.75;;;;;;;20.94;63.08;99459.09;1740004;81;21146;-75
2021/11/05 10:53:41;;;;;;;122.33;56.75;;;;;;;21.02;62.21;99462.73;1729687;79;21059;-85
2021/11/05 10:56:18;;;;;;;82.85;36.85;;;;;;;20.98;61.75;99450.16;1685201;81;21077;-73
2021/11/05 10:58:59;;;;;;;42.60;24.02;;;;;;;20.89;62.57;99456.66;1716951;83;21045;-83
2021/11/05 11:01:30;;;;;;;76.03;36.50;;;;;;;20.90;62.75;99461.05;1699614;83;21061;-79
2021/11/05 11:04:00;;;;;;;34.85;21.07;;;;;;;21.17;63.13;99458.05;1694812;83;21896;-84
2021/11/05 11:06:41;;;;;;;33.95;19.45;;;;;;;21.58;61.16;99458.70;1694760;83;21174;-72
2021/11/05 11:09:21;;;;;;;31.55;20.15;;;;;;;21.79;59.78;99464.39;1697691;82;21534;-76
2021/11/05 11:11:52;;;;;;;33.20;19.90;;;;;;;21.78;59.17;99455.80;1743261;80;21557;-72
2021/11/05 11:14:30;;;;;;;32.28;21.37;;;;;;;21.70;59.38;99441.59;1706386;82;21090;-71
2021/11/05 11:17:00;;;;;;;33.53;21.68;;;;;;;21.69;58.90;99446.39;1696310;83;21157;-73